createdAt,value
2023-04-12T00:00:12.019Z,2.13
2023-04-12T00:02:15.016Z,1.98
2023-04-12T00:04:18.168Z,2.08
2023-04-12T00:06:32.274Z,1.92
2023-04-12T00:08:35.569Z,1.77
2023-04-12T00:10:38.490Z,1.80
2023-04-12T00:12:41.787Z,2.42
2023-04-12T00:14:44.547Z,2.08
2023-04-12T00:16:47.073Z,1.80
2023-04-12T00:18:49.703Z,1.80
2023-04-12T00:20:53.195Z,2.00
2023-04-12T00:22:57.571Z,2.28
2023-04-12T00:25:00.262Z,2.00
2023-04-12T00:27:02.936Z,1.95
2023-04-12T00:29:05.498Z,1.80
2023-04-12T00:31:08.596Z,2.47
2023-04-12T00:33:11.214Z,1.83
2023-04-12T00:35:14.381Z,2.28
2023-04-12T00:37:16.949Z,2.25
2023-04-12T00:39:20.933Z,2.38
2023-04-12T00:41:24.149Z,1.73
2023-04-12T00:43:27.777Z,1.90
2023-04-12T00:45:30.338Z,1.73
2023-04-12T00:47:32.949Z,1.90
2023-04-12T00:49:35.960Z,1.85
2023-04-12T00:51:39.353Z,2.22
2023-04-12T00:53:42.132Z,2.28
2023-04-12T00:55:46.847Z,2.22
2023-04-12T00:57:49.391Z,2.22
2023-04-12T00:59:52.165Z,2.03
2023-04-12T01:01:56.890Z,1.98
2023-04-12T01:04:01.474Z,2.30
2023-04-12T01:06:14.805Z,1.90
2023-04-12T01:08:24.999Z,1.65
2023-04-12T01:10:40.850Z,2.42
2023-04-12T01:12:53.301Z,2.28
2023-04-12T01:15:05.926Z,1.65
2023-04-12T01:17:14.121Z,2.20
2023-04-12T01:19:30.950Z,2.13
2023-04-12T01:21:46.088Z,2.20
2023-04-12T01:24:13.982Z,2.03
2023-04-12T01:26:34.383Z,1.95
2023-04-12T01:28:42.194Z,2.70
2023-04-12T01:30:47.562Z,2.15
2023-04-12T01:32:53.314Z,2.22
2023-04-12T01:34:58.503Z,2.67
2023-04-12T01:37:04.009Z,2.17
2023-04-12T01:39:08.372Z,2.22
2023-04-12T01:41:11.222Z,2.10
2023-04-12T01:43:15.903Z,2.05
2023-04-12T01:45:19.942Z,2.42
2023-04-12T01:47:22.587Z,1.80
2023-04-12T01:49:33.683Z,2.28
2023-04-12T01:51:46.077Z,2.30
2023-04-12T01:53:52.038Z,2.10
2023-04-12T01:56:00.693Z,2.13
2023-04-12T01:58:04.182Z,2.60
2023-04-12T02:00:10.685Z,2.08
2023-04-12T02:02:15.041Z,2.25
2023-04-12T02:04:19.152Z,2.83
2023-04-12T02:06:22.345Z,2.10
2023-04-12T02:08:25.454Z,1.95
2023-04-12T02:10:31.053Z,2.33
2023-04-12T02:12:33.607Z,2.35
2023-04-12T02:14:36.801Z,2.38
2023-04-12T02:16:39.414Z,2.10
2023-04-12T02:18:43.729Z,2.22
2023-04-12T02:20:46.558Z,2.00
2023-04-12T02:22:50.522Z,1.63
2023-04-12T02:24:54.179Z,1.67
2023-04-12T02:26:56.792Z,1.80
2023-04-12T02:28:59.322Z,1.77
2023-04-12T02:31:01.909Z,1.52
2023-04-12T02:33:06.182Z,1.70
2023-04-12T02:35:10.938Z,1.77
2023-04-12T02:37:14.650Z,1.50
2023-04-12T02:39:19.212Z,1.73
2023-04-12T02:41:22.884Z,2.03
2023-04-12T02:43:25.461Z,1.77
2023-04-12T02:45:28.359Z,1.67
2023-04-12T02:47:30.969Z,2.45
2023-04-12T02:49:33.674Z,1.63
2023-04-12T02:51:38.507Z,1.60
2023-04-12T02:53:41.286Z,1.67
2023-04-12T02:55:44.668Z,1.50
2023-04-12T02:57:47.578Z,1.38
2023-04-12T02:59:53.000Z,1.42
2023-04-12T03:01:56.034Z,1.35
2023-04-12T03:03:59.013Z,1.48
2023-04-12T03:06:01.961Z,1.80
2023-04-12T03:08:06.332Z,1.40
2023-04-12T03:10:11.969Z,2.08
2023-04-12T03:12:15.585Z,1.50
2023-04-12T03:14:18.313Z,1.45
2023-04-12T03:16:23.443Z,1.60
2023-04-12T03:18:26.465Z,1.50
2023-04-12T03:20:29.488Z,1.40
2023-04-12T03:22:32.087Z,1.27
2023-04-12T03:24:37.194Z,1.85
2023-04-12T03:26:41.603Z,1.33
2023-04-12T03:28:45.845Z,1.17
2023-04-12T03:30:48.433Z,1.23
2023-04-12T03:32:51.130Z,1.40
2023-04-12T03:34:53.746Z,1.13
2023-04-12T03:36:56.484Z,0.90
2023-04-12T03:38:59.083Z,1.42
2023-04-12T03:41:02.978Z,1.20
2023-04-12T03:43:05.643Z,1.30
2023-04-12T03:45:09.074Z,1.13
2023-04-12T03:47:12.033Z,1.13
2023-04-12T03:49:14.604Z,1.40
2023-04-12T03:51:17.239Z,1.85
2023-04-12T03:53:19.766Z,1.67
2023-04-12T03:55:22.420Z,1.70
2023-04-12T03:57:26.302Z,1.30
2023-04-12T03:59:28.983Z,1.30
2023-04-12T04:01:31.582Z,1.30
2023-04-12T04:03:35.021Z,1.42
2023-04-12T04:05:37.887Z,1.90
2023-04-12T04:07:40.441Z,1.55
2023-04-12T04:09:43.009Z,1.33
2023-04-12T04:11:45.594Z,1.60
2023-04-12T04:13:49.489Z,1.30
2023-04-12T04:15:56.722Z,1.40
2023-04-12T04:17:59.337Z,1.73
2023-04-12T04:20:01.907Z,1.95
2023-04-12T04:22:04.675Z,1.75
2023-04-12T04:24:10.002Z,1.50
2023-04-12T04:26:13.717Z,1.50
2023-04-12T04:28:16.923Z,1.75
2023-04-12T04:30:22.996Z,1.45
2023-04-12T04:32:25.579Z,1.42
2023-04-12T04:34:28.163Z,1.70
2023-04-12T04:36:30.908Z,1.50
2023-04-12T04:38:33.919Z,1.92
2023-04-12T04:40:38.288Z,1.67
2023-04-12T04:42:42.886Z,1.70
2023-04-12T04:44:45.484Z,1.40
2023-04-12T04:46:49.801Z,1.60
2023-04-12T04:48:55.130Z,1.90
2023-04-12T04:50:57.692Z,1.90
2023-04-12T04:53:00.222Z,1.60
2023-04-12T04:55:05.498Z,1.50
2023-04-12T04:57:11.606Z,1.90
2023-04-12T04:59:14.179Z,2.50
2023-04-12T05:01:17.533Z,1.80
2023-04-12T05:03:21.557Z,1.65
2023-04-12T05:05:25.905Z,1.75
2023-04-12T05:07:28.452Z,1.40
2023-04-12T05:09:30.972Z,1.40
2023-04-12T05:11:33.575Z,1.50
2023-04-12T05:13:36.150Z,1.40
2023-04-12T05:15:41.439Z,1.70
2023-04-12T05:17:44.050Z,1.63
2023-04-12T05:19:47.946Z,1.67
2023-04-12T05:21:50.493Z,1.80
2023-04-12T05:23:53.026Z,1.55
2023-04-12T05:25:55.682Z,1.35
2023-04-12T05:27:58.194Z,1.48
2023-04-12T05:30:01.087Z,1.55
2023-04-12T05:32:03.995Z,1.58
2023-04-12T05:34:06.549Z,1.88
2023-04-12T05:36:11.125Z,2.03
2023-04-12T05:38:13.667Z,1.45
2023-04-12T05:40:16.341Z,1.45
2023-04-12T05:42:18.873Z,1.80
2023-04-12T05:44:21.561Z,1.60
2023-04-12T05:46:24.200Z,1.33
2023-04-12T05:48:26.841Z,1.42
2023-04-12T05:50:29.376Z,1.35
2023-04-12T05:52:33.362Z,1.40
2023-04-12T05:54:35.933Z,1.20
2023-04-12T05:56:38.614Z,1.77
2023-04-12T05:58:41.138Z,1.35
2023-04-12T06:00:44.064Z,1.70
2023-04-12T06:02:47.638Z,1.20
2023-04-12T06:04:51.851Z,1.30
2023-04-12T06:06:56.161Z,1.15
2023-04-12T06:09:00.742Z,1.40
2023-04-12T06:11:03.295Z,1.10
2023-04-12T06:13:05.915Z,1.23
2023-04-12T06:15:08.977Z,1.00
2023-04-12T06:17:11.717Z,1.13
2023-04-12T06:19:14.270Z,0.90
2023-04-12T06:21:16.854Z,1.08
2023-04-12T06:23:19.637Z,1.20
2023-04-12T06:25:24.136Z,1.15
2023-04-12T06:27:27.392Z,1.17
2023-04-12T06:29:29.926Z,1.10
2023-04-12T06:31:32.618Z,0.90
2023-04-12T06:33:36.649Z,1.10
2023-04-12T06:35:39.230Z,0.90
2023-04-12T06:37:41.810Z,0.90
2023-04-12T06:39:44.340Z,0.90
2023-04-12T06:41:50.211Z,0.70
2023-04-12T06:43:52.752Z,1.10
2023-04-12T06:45:56.939Z,1.30
2023-04-12T06:47:59.512Z,1.05
2023-04-12T06:50:03.089Z,1.23
2023-04-12T06:52:05.840Z,1.00
2023-04-12T06:54:08.461Z,1.10
2023-04-12T06:56:11.052Z,1.10
2023-04-12T06:58:14.951Z,1.30
2023-04-12T07:00:18.011Z,1.20
2023-04-12T07:02:20.805Z,1.00
2023-04-12T07:04:23.653Z,0.80
2023-04-12T07:06:26.491Z,1.02
2023-04-12T07:08:30.232Z,1.02
2023-04-12T07:10:32.895Z,1.23
2023-04-12T07:12:35.664Z,1.27
2023-04-12T07:14:39.550Z,1.02
2023-04-12T07:16:44.122Z,1.00
2023-04-12T07:18:49.298Z,1.25
2023-04-12T07:20:55.423Z,1.25
2023-04-12T07:22:57.982Z,1.20
2023-04-12T07:25:00.569Z,1.10
2023-04-12T07:27:04.079Z,1.05
2023-04-12T07:29:06.753Z,1.20
2023-04-12T07:31:11.034Z,1.23
2023-04-12T07:33:19.720Z,1.17
2023-04-12T07:35:23.077Z,1.00
2023-04-12T07:37:25.644Z,1.15
2023-04-12T07:39:29.560Z,1.10
2023-04-12T07:41:32.170Z,1.23
2023-04-12T07:43:34.909Z,1.45
2023-04-12T07:45:37.924Z,1.27
2023-04-12T07:47:41.954Z,1.17
2023-04-12T07:49:44.578Z,1.15
2023-04-12T07:51:47.404Z,1.23
2023-04-12T07:53:49.960Z,1.13
2023-04-12T07:55:52.782Z,1.10
2023-04-12T07:57:55.321Z,0.93
2023-04-12T07:59:57.872Z,1.00
2023-04-12T08:02:01.047Z,1.00
2023-04-12T08:04:05.499Z,1.15
2023-04-12T08:06:08.933Z,1.25
2023-04-12T08:08:12.418Z,1.10
2023-04-12T08:10:15.331Z,1.30
2023-04-12T08:12:17.913Z,1.08
2023-04-12T08:14:21.122Z,1.40
2023-04-12T08:16:23.701Z,1.27
2023-04-12T08:18:26.544Z,1.15
2023-04-12T08:20:31.616Z,1.48
2023-04-12T08:22:34.165Z,1.02
2023-04-12T08:24:36.759Z,1.40
2023-04-12T08:26:39.365Z,1.35
2023-04-12T08:28:41.882Z,1.50
2023-04-12T08:30:44.684Z,1.00
2023-04-12T08:32:47.359Z,1.27
2023-04-12T08:34:49.947Z,1.35
2023-04-12T08:36:53.834Z,2.05
2023-04-12T08:38:59.612Z,1.23
2023-04-12T08:41:05.465Z,1.60
2023-04-12T08:43:12.123Z,1.42
2023-04-12T08:45:18.451Z,1.60
2023-04-12T08:47:22.161Z,1.60
2023-04-12T08:49:25.050Z,1.60
2023-04-12T08:51:27.955Z,1.35
2023-04-12T08:53:32.047Z,1.30
2023-04-12T08:55:34.639Z,1.67
2023-04-12T08:57:40.708Z,1.38
2023-04-12T08:59:44.634Z,1.50
2023-04-12T09:01:47.667Z,1.35
2023-04-12T09:03:50.614Z,1.58
2023-04-12T09:05:53.314Z,1.55
2023-04-12T09:07:55.870Z,1.30
2023-04-12T09:10:00.810Z,1.50
2023-04-12T09:12:08.543Z,1.35
2023-04-12T09:14:22.884Z,1.60
2023-04-12T09:16:38.964Z,1.55
2023-04-12T09:18:49.992Z,1.50
2023-04-12T09:21:06.793Z,1.57
2023-04-12T09:23:20.181Z,1.52
2023-04-12T09:25:39.089Z,1.77
2023-04-12T09:27:48.684Z,1.85
2023-04-12T09:29:52.164Z,1.60
2023-04-12T09:32:01.991Z,1.60
2023-04-12T09:34:09.407Z,1.73
2023-04-12T09:36:14.255Z,1.58
2023-04-12T09:38:17.238Z,2.10
2023-04-12T09:40:25.314Z,1.90
2023-04-12T09:42:33.807Z,1.67
2023-04-12T09:44:37.620Z,1.90
2023-04-12T09:46:51.915Z,1.58
2023-04-12T09:48:58.803Z,1.58
2023-04-12T09:51:02.265Z,1.55
2023-04-12T09:53:06.203Z,1.50
2023-04-12T09:55:10.644Z,1.58
2023-04-12T09:57:13.995Z,1.90
2023-04-12T09:59:19.299Z,1.85
2023-04-12T10:01:23.884Z,1.63
2023-04-12T10:03:28.130Z,1.83
2023-04-12T10:05:31.156Z,1.85
2023-04-12T10:07:37.440Z,1.58
2023-04-12T10:09:41.483Z,1.60
2023-04-12T10:11:46.379Z,1.50
2023-04-12T10:13:50.652Z,1.42
2023-04-12T10:15:56.233Z,1.70
2023-04-12T10:17:58.919Z,1.42
2023-04-12T10:20:01.865Z,1.77
2023-04-12T10:22:04.423Z,1.65
2023-04-12T10:24:07.862Z,1.73
2023-04-12T10:26:10.837Z,1.50
2023-04-12T10:28:18.580Z,1.65
2023-04-12T10:30:23.686Z,1.60
2023-04-12T10:32:27.647Z,1.55
2023-04-12T10:34:31.371Z,1.27
2023-04-12T10:36:53.462Z,1.77
2023-04-12T10:41:17.528Z,1.60
2023-04-12T10:43:27.707Z,2.08
2023-04-12T10:45:37.996Z,1.35
2023-04-12T10:48:01.706Z,1.50
2023-04-12T10:50:25.649Z,1.60
2023-04-12T10:52:28.330Z,1.48
2023-04-12T10:54:36.204Z,1.10
2023-04-12T10:56:40.812Z,1.48
2023-04-12T10:58:59.406Z,1.35
2023-04-12T11:01:11.585Z,1.33
2023-04-12T11:03:17.950Z,1.65
2023-04-12T11:05:21.617Z,1.33
2023-04-12T11:07:24.689Z,1.42
2023-04-12T11:09:28.647Z,1.13
2023-04-12T11:11:35.684Z,0.85
2023-04-12T11:13:39.890Z,1.42
2023-04-12T11:15:42.615Z,1.00
2023-04-12T11:17:55.139Z,1.30
2023-04-12T11:20:00.799Z,1.10
2023-04-12T11:22:05.120Z,1.20
2023-04-12T11:24:07.904Z,1.33
2023-04-12T11:26:10.924Z,1.10
2023-04-12T11:28:27.881Z,1.10
2023-04-12T11:30:31.508Z,1.10
2023-04-12T11:32:35.236Z,0.90
2023-04-12T11:34:38.067Z,0.80
2023-04-12T11:36:42.411Z,0.80
2023-04-12T11:38:46.256Z,0.98
2023-04-12T11:40:49.324Z,1.10
2023-04-12T11:42:52.607Z,0.90
2023-04-12T11:45:01.584Z,1.48
2023-04-12T11:47:07.639Z,1.35
2023-04-12T11:49:10.660Z,0.95
2023-04-12T11:51:24.791Z,1.10
2023-04-12T11:53:31.873Z,1.02
2023-04-12T11:55:34.433Z,1.23
2023-04-12T11:57:36.980Z,0.75
2023-04-12T11:59:39.544Z,0.80
2023-04-12T12:01:42.473Z,0.90
2023-04-12T12:03:45.986Z,0.88
2023-04-12T12:05:49.573Z,0.88
2023-04-12T12:07:54.068Z,0.73
2023-04-12T12:09:58.689Z,1.10
2023-04-12T12:12:01.558Z,1.00
2023-04-12T12:14:04.542Z,0.90
2023-04-12T12:16:08.520Z,1.00
2023-04-12T12:18:11.096Z,1.00
2023-04-12T12:20:21.350Z,1.02
2023-04-12T12:22:24.019Z,0.80
2023-04-12T12:24:27.127Z,0.90
2023-04-12T12:26:31.210Z,0.88
2023-04-12T12:28:37.681Z,0.73
2023-04-12T12:30:41.121Z,0.90
2023-04-12T12:32:44.908Z,0.80
2023-04-12T12:34:55.095Z,1.00
2023-04-12T12:36:57.827Z,1.13
2023-04-12T12:39:06.792Z,0.95
2023-04-12T12:41:17.410Z,0.88
2023-04-12T12:43:21.621Z,0.70
2023-04-12T12:45:25.691Z,0.98
2023-04-12T12:47:28.393Z,0.82
2023-04-12T12:49:30.954Z,0.98
2023-04-12T12:51:33.608Z,0.70
2023-04-12T12:53:36.509Z,0.73
2023-04-12T12:55:39.286Z,0.95
2023-04-12T12:57:43.389Z,0.70
2023-04-12T12:59:47.263Z,0.90
2023-04-12T13:01:49.911Z,1.30
2023-04-12T13:03:52.657Z,0.90
2023-04-12T13:05:55.742Z,0.80
2023-04-12T13:07:58.307Z,0.68
2023-04-12T13:10:02.957Z,0.70
2023-04-12T13:12:05.609Z,0.60
2023-04-12T13:14:08.219Z,0.65
2023-04-12T13:16:12.360Z,0.68
2023-04-12T13:18:16.702Z,1.10
2023-04-12T13:20:19.410Z,0.80
2023-04-12T13:22:22.158Z,0.80
2023-04-12T13:24:24.712Z,0.90
2023-04-12T13:26:27.264Z,0.98
2023-04-12T13:28:29.792Z,0.80
2023-04-12T13:30:32.353Z,0.90
2023-04-12T13:32:36.513Z,0.80
2023-04-12T13:34:41.213Z,1.08
2023-04-12T13:36:43.804Z,0.57
2023-04-12T13:38:46.369Z,0.40
2023-04-12T13:40:48.927Z,0.68
2023-04-12T13:42:51.523Z,0.60
2023-04-12T13:44:54.046Z,0.70
2023-04-12T13:46:56.875Z,0.90
2023-04-12T13:49:00.876Z,0.55
2023-04-12T13:51:04.152Z,0.70
2023-04-12T13:53:06.964Z,0.90
2023-04-12T13:55:10.287Z,0.63
2023-04-12T13:57:12.853Z,0.70
2023-04-12T13:59:15.482Z,0.60
2023-04-12T14:01:20.436Z,0.80
2023-04-12T14:03:23.626Z,0.82
2023-04-12T14:05:27.676Z,0.70
2023-04-12T14:07:30.311Z,0.77
2023-04-12T14:09:33.796Z,0.73
2023-04-12T14:11:47.574Z,0.88
2023-04-12T14:13:50.141Z,1.02
2023-04-12T14:15:52.829Z,0.90
2023-04-12T14:17:55.804Z,0.85
2023-04-12T14:19:58.818Z,0.70
2023-04-12T14:22:03.813Z,0.80
2023-04-12T14:24:06.682Z,0.80
2023-04-12T14:26:09.295Z,0.77
2023-04-12T14:28:17.017Z,0.70
2023-04-12T14:30:19.567Z,0.60
2023-04-12T14:32:24.484Z,0.80
2023-04-12T14:34:27.041Z,0.60
2023-04-12T14:36:29.835Z,0.70
2023-04-12T14:38:33.771Z,0.60
2023-04-12T14:40:36.438Z,0.57
2023-04-12T14:42:39.310Z,0.88
2023-04-12T14:44:41.839Z,0.65
2023-04-12T14:46:44.434Z,0.55
2023-04-12T14:48:47.001Z,0.65
2023-04-12T14:50:49.551Z,0.70
2023-04-12T14:52:52.062Z,0.60
2023-04-12T14:54:55.994Z,0.90
2023-04-12T14:56:58.550Z,0.60
2023-04-12T14:59:01.256Z,0.80
2023-04-12T15:01:03.860Z,0.85
2023-04-12T15:03:07.310Z,0.88
2023-04-12T15:05:10.433Z,0.85
2023-04-12T15:07:13.074Z,0.68
2023-04-12T15:09:17.487Z,0.60
2023-04-12T15:11:22.213Z,0.60
2023-04-12T15:13:31.978Z,0.57
2023-04-12T15:15:36.180Z,0.50
2023-04-12T15:17:38.761Z,0.90
2023-04-12T15:19:41.330Z,0.80
2023-04-12T15:21:44.386Z,0.43
2023-04-12T15:23:47.423Z,0.70
2023-04-12T15:25:50.014Z,0.77
2023-04-12T15:27:53.881Z,1.00
2023-04-12T15:29:56.434Z,0.70
2023-04-12T15:31:59.072Z,0.60
2023-04-12T15:34:01.631Z,0.40
2023-04-12T15:36:05.146Z,0.38
2023-04-12T15:38:08.118Z,0.40
2023-04-12T15:40:13.645Z,0.60
2023-04-12T15:42:16.494Z,0.50
2023-04-12T15:44:20.448Z,0.30
2023-04-12T15:46:23.500Z,0.40
2023-04-12T15:48:27.551Z,0.35
2023-04-12T15:50:30.098Z,0.50
2023-04-12T15:52:32.843Z,0.40
2023-04-12T15:54:43.091Z,0.30
2023-04-12T15:56:46.371Z,0.40
2023-04-12T15:58:48.926Z,0.35
2023-04-12T16:00:53.866Z,0.38
2023-04-12T16:02:57.392Z,0.38
2023-04-12T16:05:00.589Z,0.45
2023-04-12T16:07:04.573Z,0.47
2023-04-12T16:09:07.164Z,0.50
2023-04-12T16:11:12.090Z,0.50
2023-04-12T16:13:15.343Z,0.70
2023-04-12T16:15:19.356Z,0.70
2023-04-12T16:17:23.315Z,0.50
2023-04-12T16:19:26.060Z,0.45
2023-04-12T16:21:30.209Z,0.60
2023-04-12T16:23:34.523Z,0.60
2023-04-12T16:25:37.057Z,0.45
2023-04-12T16:27:39.578Z,0.60
2023-04-12T16:29:42.540Z,0.57
2023-04-12T16:31:45.135Z,0.63
2023-04-12T16:33:49.260Z,0.60
2023-04-12T16:35:51.806Z,0.70
2023-04-12T16:37:55.457Z,0.68
2023-04-12T16:39:58.252Z,0.60
2023-04-12T16:42:02.802Z,0.70
2023-04-12T16:44:05.361Z,0.80
2023-04-12T16:46:08.232Z,0.60
2023-04-12T16:48:11.638Z,0.70
2023-04-12T16:50:15.729Z,0.60
2023-04-12T16:52:18.276Z,0.73
2023-04-12T16:54:21.700Z,0.70
2023-04-12T16:56:24.953Z,0.70
2023-04-12T16:58:30.468Z,1.15
2023-04-12T17:00:33.323Z,0.80
2023-04-12T17:02:36.030Z,0.60
2023-04-12T17:04:38.731Z,0.73
2023-04-12T17:06:44.143Z,0.70
2023-04-12T17:08:47.708Z,1.88
2023-04-12T17:10:50.830Z,1.00
2023-04-12T17:12:54.983Z,0.77
2023-04-12T17:14:57.785Z,0.80
2023-04-12T17:17:00.425Z,0.90
2023-04-12T17:19:02.960Z,0.60
2023-04-12T17:21:06.754Z,0.60
2023-04-12T17:23:11.168Z,0.60
2023-04-12T17:25:14.760Z,0.90
2023-04-12T17:27:17.344Z,0.73
2023-04-12T17:29:20.361Z,0.80
2023-04-12T17:31:22.954Z,1.23
2023-04-12T17:33:25.592Z,1.08
2023-04-12T17:35:28.465Z,1.15
2023-04-12T17:37:31.053Z,1.05
2023-04-12T17:39:34.948Z,0.90
2023-04-12T17:41:37.751Z,1.10
2023-04-12T17:43:40.385Z,1.40
2023-04-12T17:45:43.463Z,1.38
2023-04-12T17:47:46.091Z,1.48
2023-04-12T17:49:48.752Z,1.67
2023-04-12T17:51:51.289Z,1.30
2023-04-12T17:53:55.197Z,1.15
2023-04-12T17:55:59.118Z,1.20
2023-04-12T17:58:01.695Z,1.15
2023-04-12T18:00:05.493Z,1.02
2023-04-12T18:02:08.124Z,1.33
2023-04-12T18:04:11.585Z,1.48
2023-04-12T18:06:14.248Z,0.88
2023-04-12T18:08:17.002Z,0.93
2023-04-12T18:10:21.543Z,1.25
2023-04-12T18:12:25.660Z,1.30
2023-04-12T18:14:28.454Z,0.80
2023-04-12T18:16:31.898Z,1.20
2023-04-12T18:18:34.553Z,0.93
2023-04-12T18:20:37.454Z,0.90
2023-04-12T18:22:40.020Z,1.02
2023-04-12T18:24:42.653Z,1.10
2023-04-12T18:26:45.446Z,0.82
2023-04-12T18:28:49.394Z,0.80
2023-04-12T18:30:51.943Z,0.85
2023-04-12T18:32:54.586Z,1.20
2023-04-12T18:34:57.210Z,1.38
2023-04-12T18:37:00.168Z,1.35
2023-04-12T18:39:02.892Z,1.48
2023-04-12T18:41:06.623Z,1.10
2023-04-12T18:43:09.206Z,1.10
2023-04-12T18:45:13.333Z,1.67
2023-04-12T18:47:15.988Z,1.30
2023-04-12T18:49:18.518Z,1.40
2023-04-12T18:51:22.777Z,1.75
2023-04-12T18:53:25.373Z,1.27
2023-04-12T18:55:27.968Z,1.60
2023-04-12T18:57:30.519Z,1.20
2023-04-12T18:59:33.148Z,1.20
2023-04-12T19:01:37.359Z,1.27
2023-04-12T19:03:39.984Z,1.08
2023-04-12T19:05:44.115Z,1.48
2023-04-12T19:07:47.402Z,1.23
2023-04-12T19:09:49.952Z,1.08
2023-04-12T19:11:55.374Z,1.20
2023-04-12T19:13:58.143Z,1.20
2023-04-12T19:16:01.713Z,1.33
2023-04-12T19:18:05.988Z,1.70
2023-04-12T19:20:10.684Z,1.27
2023-04-12T19:22:13.231Z,1.00
2023-04-12T19:24:16.125Z,0.90
2023-04-12T19:26:18.674Z,0.90
2023-04-12T19:28:21.632Z,0.95
2023-04-12T19:30:24.361Z,1.17
2023-04-12T19:32:27.135Z,0.98
2023-04-12T19:34:31.294Z,1.00
2023-04-12T19:36:34.369Z,0.70
2023-04-12T19:38:37.340Z,0.80
2023-04-12T19:40:39.870Z,0.60
2023-04-12T19:42:42.758Z,0.63
2023-04-12T19:44:45.333Z,0.80
2023-04-12T19:46:48.263Z,0.60
2023-04-12T19:48:51.342Z,0.77
2023-04-12T19:50:56.562Z,0.60
2023-04-12T19:52:59.153Z,0.70
2023-04-12T19:55:02.369Z,0.80
2023-04-12T19:57:05.464Z,0.70
2023-04-12T19:59:10.838Z,0.60
2023-04-12T20:01:16.391Z,0.80
2023-04-12T20:03:19.069Z,0.60
2023-04-12T20:05:22.502Z,1.10
2023-04-12T20:07:26.376Z,0.90
2023-04-12T20:09:28.957Z,1.25
2023-04-12T20:11:31.610Z,0.90
2023-04-12T20:13:34.498Z,1.00
2023-04-12T20:15:37.324Z,0.70
2023-04-12T20:17:41.892Z,0.90
2023-04-12T20:19:44.445Z,0.80
2023-04-12T20:21:47.406Z,0.70
2023-04-12T20:23:51.681Z,0.80
2023-04-12T20:25:55.506Z,0.68
2023-04-12T20:27:58.649Z,0.70
2023-04-12T20:30:01.612Z,0.95
2023-04-12T20:32:04.248Z,0.80
2023-04-12T20:34:07.860Z,0.80
2023-04-12T20:36:11.291Z,0.70
2023-04-12T20:38:14.050Z,1.10
2023-04-12T20:40:18.811Z,1.20
2023-04-12T20:42:22.766Z,1.20
2023-04-12T20:44:25.436Z,1.27
2023-04-12T20:46:28.654Z,1.20
2023-04-12T20:48:31.503Z,1.10
2023-04-12T20:50:34.105Z,0.90
2023-04-12T20:52:36.725Z,1.10
2023-04-12T20:54:39.268Z,1.05
2023-04-12T20:56:43.341Z,1.02
2023-04-12T20:58:47.247Z,0.70
2023-04-12T21:00:49.784Z,0.60
2023-04-12T21:02:52.434Z,0.60
2023-04-12T21:04:55.893Z,0.60
2023-04-12T21:06:59.646Z,0.75
2023-04-12T21:09:04.232Z,0.70
2023-04-12T21:11:07.209Z,0.90
2023-04-12T21:13:11.854Z,0.95
2023-04-12T21:15:17.862Z,0.82
2023-04-12T21:17:22.270Z,0.70
2023-04-12T21:19:25.105Z,0.65
2023-04-12T21:21:28.473Z,0.55
2023-04-12T21:23:31.035Z,0.80
2023-04-12T21:25:34.447Z,0.80
2023-04-12T21:27:37.156Z,0.75
2023-04-12T21:29:41.933Z,0.60
2023-04-12T21:31:44.517Z,0.80
2023-04-12T21:33:47.177Z,0.60
2023-04-12T21:35:49.913Z,0.80
2023-04-12T21:37:52.731Z,0.60
2023-04-12T21:39:55.259Z,0.90
2023-04-12T21:41:58.379Z,0.90
2023-04-12T21:44:00.937Z,0.80
2023-04-12T21:46:07.630Z,0.77
2023-04-12T21:48:10.236Z,0.40
2023-04-12T21:50:13.095Z,0.47
2023-04-12T21:52:15.733Z,0.50
2023-04-12T21:54:19.776Z,0.40
2023-04-12T21:56:22.320Z,0.40
2023-04-12T21:58:24.864Z,0.47
2023-04-12T22:00:28.237Z,0.40
2023-04-12T22:02:32.379Z,0.50
2023-04-12T22:04:35.217Z,0.52
2023-04-12T22:06:37.777Z,0.60
2023-04-12T22:08:43.847Z,0.50
2023-04-12T22:10:46.500Z,0.40
2023-04-12T22:12:50.411Z,0.40
2023-04-12T22:14:52.988Z,0.35
2023-04-12T22:19:25.954Z,0.60
2023-04-12T22:21:28.796Z,0.45
2023-04-12T22:23:31.341Z,0.50
2023-04-12T22:25:35.156Z,0.40
2023-04-12T22:27:40.603Z,0.50
2023-04-12T22:29:43.603Z,0.40
2023-04-12T22:31:46.947Z,0.45
2023-04-12T22:33:49.526Z,0.40
2023-04-12T22:35:53.684Z,0.40
2023-04-12T22:37:56.674Z,0.60
2023-04-12T22:40:02.242Z,0.20
2023-04-12T22:42:06.271Z,0.43
2023-04-12T22:44:09.344Z,0.40
2023-04-12T22:46:15.868Z,0.50
2023-04-12T22:48:20.219Z,0.40
2023-04-12T22:50:24.594Z,0.47
2023-04-12T22:52:30.435Z,0.30
2023-04-12T22:54:33.943Z,0.45
2023-04-12T22:56:41.867Z,0.40
2023-04-12T22:58:44.383Z,0.47
2023-04-12T23:00:49.198Z,0.47
2023-04-12T23:02:53.648Z,0.30
2023-04-12T23:04:56.304Z,0.40
2023-04-12T23:07:02.345Z,0.40
2023-04-12T23:09:06.732Z,0.30
2023-04-12T23:11:09.415Z,0.50
2023-04-12T23:13:12.438Z,0.32
2023-04-12T23:15:14.970Z,0.47
2023-04-12T23:17:19.582Z,0.50
2023-04-12T23:19:23.068Z,0.40
2023-04-12T23:21:25.645Z,0.40
2023-04-12T23:23:28.347Z,0.50
2023-04-12T23:25:39.330Z,0.40
2023-04-12T23:27:42.454Z,0.50
2023-04-12T23:29:44.996Z,0.60
2023-04-12T23:31:47.573Z,0.50
2023-04-12T23:33:50.594Z,0.57
2023-04-12T23:35:53.457Z,0.60
2023-04-12T23:37:56.170Z,0.60
2023-04-12T23:40:06.100Z,0.40
2023-04-12T23:42:12.615Z,0.55
2023-04-12T23:44:15.382Z,0.60
2023-04-12T23:46:18.016Z,0.50
2023-04-12T23:48:20.663Z,0.50
2023-04-12T23:50:23.456Z,0.63
2023-04-12T23:52:26.022Z,0.40
2023-04-12T23:54:28.553Z,0.55
2023-04-12T23:56:31.485Z,0.55
2023-04-12T23:58:35.380Z,0.55
